Terminal Aerodrome Forecast
Issued by NWS Duluth, MN

Home | Current Version | Previous Version | Text Only | Print | Product List | Glossary On
Versions: 1 2 3 4 5 6 7 8 9 10 11 12 13 14 15 16 17 18 19 20 21 22 23
077
FTUS43 KDLH 230531
TAFDLH
TAF
KDLH 230531Z 2306/2406 35011KT P6SM VCSH BKN070 BKN100
     FM230900 01009KT P6SM -SHRA OVC015
     FM231100 03007KT 4SM -SHRASN OVC008
     FM231400 07010KT 5SM BR VCSH OVC008
     FM231700 08009KT P6SM OVC015
     FM232000 09009KT P6SM VCSH SCT015 BKN025=

USA.gov is the U.S. government's official web portal to all federal, state and local government web resources and services.